Time;durP1;ratioP1;P1;durP2;ratioP2;P2;SDS_P1;SDS_P2;PMS_P1;PMS_P2;Temp;Humidity;BMP_temperature;BMP_pressure;BME280_temperature;BME280_humidity;BME280_pressure;Samples;Min_cycle;Max_cycle;Signal;HPM_P1;HPM_P2
2023/09/21 00:01:06;;;;;;;15.63;9.10;;;;;;;-141.97;62.90;47428.75;5014130;28;20659;-84
2023/09/21 00:03:33;;;;;;;14.87;8.97;;;;;;;-141.97;63.80;47517.16;5012822;28;20647;-82
2023/09/21 00:05:58;;;;;;;13.93;8.27;;;;;;;-141.97;63.01;47415.28;4998582;28;20554;-82
2023/09/21 00:08:24;;;;;;;13.10;8.33;;;;;;;-141.97;63.17;47680.53;5009277;28;20193;-83
2023/09/21 00:10:51;;;;;;;13.60;8.97;;;;;;;-141.97;63.77;47484.47;5009445;28;20175;-82
2023/09/21 00:13:20;;;;;;;15.03;8.93;;;;;;;-141.97;64.25;47476.78;4993233;28;20677;-82
2023/09/21 00:15:46;;;;;;;16.00;9.20;;;;;;;-141.97;64.25;47432.59;4993825;28;20187;-82
2023/09/21 00:18:13;;;;;;;14.87;9.10;;;;;;;-141.97;64.55;47522.91;4994054;28;20171;-82
2023/09/21 00:23:07;;;;;;;16.17;9.80;;;;;;;-141.97;64.09;47521.00;5004906;28;20209;-82
2023/09/21 00:25:32;;;;;;;15.93;9.93;;;;;;;-141.97;64.00;47494.09;5002217;28;20588;-81
2023/09/21 00:27:58;;;;;;;15.20;9.33;;;;;;;-141.97;64.26;47449.88;4993593;28;20203;-82
2023/09/21 00:30:23;;;;;;;14.90;9.40;;;;;;;-141.97;64.40;47461.41;5009088;28;20229;-82
2023/09/21 00:32:49;;;;;;;17.57;8.93;;;;;;;-141.97;64.43;47478.72;4993650;28;20167;-82
2023/09/21 00:35:16;;;;;;;17.27;9.17;;;;;;;-141.97;64.06;47457.56;4993426;28;20594;-82
2023/09/21 00:37:42;;;;;;;15.93;9.10;;;;;;;-141.97;64.06;47536.38;4992251;28;20170;-82
2023/09/21 00:40:14;;;;;;;16.40;9.80;;;;;;;-141.97;64.49;47507.53;4993875;28;20175;-82
2023/09/21 00:42:40;;;;;;;16.10;9.30;;;;;;;-141.97;64.57;47521.00;4993532;28;20648;-83
2023/09/21 00:45:08;;;;;;;17.07;9.53;;;;;;;-141.97;65.09;47430.66;5025402;28;20232;-83
2023/09/21 00:47:41;;;;;;;16.93;9.50;;;;;;;-141.97;65.00;47507.53;5008831;28;20698;-81
2023/09/21 00:50:10;;;;;;;17.83;9.50;;;;;;;-141.97;65.95;47496.00;4999620;28;20227;-80
2023/09/21 00:52:40;;;;;;;13.90;9.30;;;;;;;-141.97;66.22;47501.78;5009808;28;20178;-80
2023/09/21 00:55:07;;;;;;;17.33;9.83;;;;;;;-141.97;66.73;47503.69;4986499;28;20230;-80
2023/09/21 00:57:33;;;;;;;29.37;14.00;;;;;;;-141.97;65.56;47651.69;4993512;28;20167;-80
2023/09/21 00:59:59;;;;;;;20.77;11.03;;;;;;;-141.97;66.04;47519.06;5005435;28;20178;-80
2023/09/21 01:02:25;;;;;;;20.47;9.77;;;;;;;-141.97;66.55;47546.00;5011730;28;20630;-80
2023/09/21 01:04:52;;;;;;;18.30;10.10;;;;;;;-141.97;66.23;47526.75;5040423;28;20183;-81
2023/09/21 01:07:22;;;;;;;17.13;9.77;;;;;;;-141.97;65.98;47490.25;5000008;28;20241;-81
2023/09/21 01:09:49;;;;;;;17.73;10.20;;;;;;;-141.97;65.69;47530.59;5001045;28;20246;-81
2023/09/21 01:12:14;;;;;;;17.10;10.57;;;;;;;-141.97;65.85;47430.66;4993059;28;20223;-81
2023/09/21 01:14:40;;;;;;;17.70;10.67;;;;;;;-141.97;65.56;47488.31;4993065;28;20198;-80
2023/09/21 01:17:06;;;;;;;19.67;10.77;;;;;;;-141.97;65.00;47507.53;4992859;28;20160;-80
2023/09/21 01:19:32;;;;;;;21.40;11.80;;;;;;;-141.97;64.61;47442.19;4991373;28;20607;-81
2023/09/21 01:22:03;;;;;;;21.07;12.17;;;;;;;-141.97;64.09;47411.44;4992900;28;20550;-80
2023/09/21 01:24:28;;;;;;;27.43;14.50;;;;;;;-141.97;64.11;47488.31;5023773;28;20183;-81
2023/09/21 01:26:54;;;;;;;29.47;14.67;;;;;;;-141.97;64.04;47403.75;4991395;28;20256;-80
2023/09/21 01:29:19;;;;;;;29.10;15.43;;;;;;;-141.97;64.11;47419.13;5007951;28;20171;-81
2023/09/21 01:31:45;;;;;;;28.83;14.83;;;;;;;-141.97;64.18;47499.84;4991554;28;20186;-81
2023/09/21 01:34:11;;;;;;;30.53;15.27;;;;;;;-141.97;64.40;47505.63;4992700;28;20643;-81
2023/09/21 01:36:37;;;;;;;38.43;15.03;;;;;;;-141.97;64.43;47694.00;4992536;28;20171;-81
2023/09/21 01:39:08;;;;;;;34.57;15.90;;;;;;;-141.97;64.07;47511.38;5007278;28;20198;-81
2023/09/21 01:41:35;;;;;;;28.97;14.10;;;;;;;-141.97;64.17;47686.31;4991309;28;20174;-80
2023/09/21 01:44:00;;;;;;;25.27;14.13;;;;;;;-141.97;64.14;47711.28;4993176;28;20186;-80
2023/09/21 01:46:26;;;;;;;23.67;12.70;;;;;;;-141.97;64.77;47421.06;4994332;28;20285;-81
2023/09/21 01:48:53;;;;;;;35.10;14.63;;;;;;;-141.97;65.18;47422.97;4994998;28;20160;-81
2023/09/21 01:51:18;;;;;;;23.17;12.73;;;;;;;-141.97;65.30;47557.53;4995067;28;20309;-82
2023/09/21 01:53:45;;;;;;;27.47;13.37;;;;;;;-141.97;65.17;47392.22;4994247;28;20179;-82
2023/09/21 01:56:11;;;;;;;31.37;14.97;;;;;;;-141.97;64.86;47499.84;4982676;28;20243;-82
2023/09/21 01:58:36;;;;;;;33.87;14.60;;;;;;;-141.97;64.97;47484.47;4992394;28;20178;-82
2023/09/21 02:01:03;;;;;;;25.90;13.50;;;;;;;-141.97;64.77;47530.59;4992404;28;20247;-82
2023/09/21 02:03:30;;;;;;;26.83;14.10;;;;;;;-141.97;65.03;47484.47;4992592;28;20186;-82
2023/09/21 02:05:58;;;;;;;23.00;12.70;;;;;;;-141.97;65.52;47551.75;4991876;28;20213;-82
2023/09/21 02:08:24;;;;;;;16.47;9.33;;;;;;;-141.97;65.61;47426.81;4992087;28;20164;-82
2023/09/21 02:10:52;;;;;;;15.90;9.93;;;;;;;-141.97;66.11;47638.25;4992081;28;20174;-82
2023/09/21 02:13:18;;;;;;;15.83;9.30;;;;;;;-141.97;65.12;47496.00;4991324;28;20270;-82
2023/09/21 02:15:44;;;;;;;15.20;9.23;;;;;;;-141.97;64.37;47407.59;4991764;28;20159;-82
2023/09/21 02:18:10;;;;;;;17.00;9.20;;;;;;;-141.97;64.17;47584.44;4991628;28;20166;-82
2023/09/21 02:20:44;;;;;;;19.93;9.73;;;;;;;-141.97;64.12;47492.16;4990283;28;20181;-82
2023/09/21 02:23:10;;;;;;;16.27;9.40;;;;;;;-141.97;64.43;47547.91;5006687;28;20552;-83
2023/09/21 02:25:40;;;;;;;20.70;10.10;;;;;;;-141.97;64.23;47496.00;4991468;28;20176;-83
2023/09/21 02:28:12;;;;;;;20.23;11.10;;;;;;;-141.97;64.35;47398.00;4991665;28;20606;-83
2023/09/21 02:30:46;;;;;;;21.27;11.00;;;;;;;-141.97;nan;47701.69;4991596;28;20189;-82
2023/09/21 02:33:12;;;;;;;18.73;9.53;;;;;;;-141.97;64.37;47509.47;5006462;28;20191;-82
2023/09/21 02:35:41;;;;;;;14.73;8.53;;;;;;;-141.97;64.20;47480.63;4991695;28;20233;-82
2023/09/21 02:38:09;;;;;;;14.83;8.20;;;;;;;-141.97;64.03;47519.06;4991568;28;20524;-82
2023/09/21 02:40:35;;;;;;;12.87;8.47;;;;;;;-141.97;64.08;47524.84;4989992;28;20175;-82
2023/09/21 02:43:00;;;;;;;13.93;8.43;;;;;;;-141.97;63.71;47530.59;4990064;28;20210;-82
2023/09/21 02:45:27;;;;;;;12.53;8.17;;;;;;;-141.97;63.50;47449.88;5006723;28;20266;-82
2023/09/21 02:48:00;;;;;;;12.53;7.50;;;;;;;-141.97;63.44;47480.63;4991723;28;20179;-82
2023/09/21 02:50:26;;;;;;;11.33;7.83;;;;;;;-141.97;63.51;47676.69;4990278;28;20624;-83
2023/09/21 02:52:54;;;;;;;14.80;7.73;;;;;;;-141.97;63.37;47503.69;5006502;28;20199;-82
2023/09/21 02:55:20;;;;;;;11.83;7.77;;;;;;;-141.97;63.26;47665.16;4982662;28;20235;-83
2023/09/21 02:57:47;;;;;;;15.13;9.17;;;;;;;-141.97;62.99;47282.69;5023136;28;20178;-82
2023/09/21 03:00:21;;;;;;;15.17;9.57;;;;;;;-141.97;63.62;47522.91;5005306;28;20228;-83
2023/09/21 03:02:49;;;;;;;18.17;9.40;;;;;;;-141.97;65.27;47519.06;5010772;28;20622;-82
2023/09/21 03:05:18;;;;;;;16.87;9.53;;;;;;;-141.97;66.07;47665.16;4991882;28;20182;-83
2023/09/21 03:07:44;;;;;;;17.70;9.40;;;;;;;-141.97;66.82;47323.03;4990145;28;20195;-82
2023/09/21 03:10:11;;;;;;;17.17;10.43;;;;;;;-141.97;67.81;47553.69;4991162;28;20167;-81
2023/09/21 03:12:38;;;;;;;17.47;9.47;;;;;;;-141.97;68.42;47398.00;4991310;28;20242;-81
2023/09/21 03:15:08;;;;;;;16.57;10.40;;;;;;;-141.97;68.53;47536.38;4989895;28;20187;-81
2023/09/21 03:17:38;;;;;;;20.73;10.87;;;;;;;-141.97;68.87;47455.66;5023238;28;20568;-80
2023/09/21 03:20:23;;;;;;;19.60;11.67;;;;;;;-141.97;68.73;47538.28;4990183;28;20168;-80
2023/09/21 03:22:48;;;;;;;17.83;10.73;;;;;;;-141.97;68.43;47515.22;4991615;28;20613;-79
2023/09/21 03:25:16;;;;;;;21.43;12.07;;;;;;;-141.97;69.18;47669.00;4991172;28;20257;-80
2023/09/21 03:27:42;;;;;;;21.47;11.70;;;;;;;-141.97;69.24;47434.50;4991341;28;20242;-80
2023/09/21 03:30:11;;;;;;;19.53;11.73;;;;;;;-141.97;69.10;47711.28;4991296;28;20167;-80
2023/09/21 03:32:40;;;;;;;21.13;11.77;;;;;;;-141.97;69.14;47486.41;4994561;28;20171;-79
2023/09/21 03:35:06;;;;;;;21.73;11.97;;;;;;;-141.97;69.25;47551.75;4994616;28;20246;-79
2023/09/21 03:37:32;;;;;;;21.00;12.13;;;;;;;-141.97;69.17;47544.06;4994947;28;20250;-81
2023/09/21 03:39:57;;;;;;;19.50;11.73;;;;;;;-141.97;68.79;47507.53;4994671;28;20330;-80
2023/09/21 03:42:23;;;;;;;20.63;11.80;;;;;;;-141.97;69.21;47492.16;5009955;28;20159;-80
2023/09/21 03:44:49;;;;;;;23.87;11.87;;;;;;;-141.97;69.03;47653.63;4999693;28;20656;-80
2023/09/21 03:47:17;;;;;;;21.77;11.53;;;;;;;-141.97;69.40;47553.69;4994645;28;20547;-81
2023/09/21 03:49:44;;;;;;;22.17;12.00;;;;;;;-141.97;70.31;47576.75;4994444;28;20163;-80
2023/09/21 03:52:15;;;;;;;22.47;12.07;;;;;;;-141.97;70.78;47559.44;5003532;28;20187;-82
2023/09/21 03:54:46;;;;;;;22.70;12.83;;;;;;;-141.97;70.18;47511.38;5002614;28;20175;-80
2023/09/21 03:57:14;;;;;;;22.33;12.57;;;;;;;-141.97;69.64;47580.59;5014568;28;20656;-80
2023/09/21 03:59:40;;;;;;;25.77;12.40;;;;;;;-141.97;69.45;47469.09;5040073;28;20201;-81
2023/09/21 04:02:07;;;;;;;26.60;13.23;;;;;;;-141.97;68.99;47561.38;5014915;28;20193;-81
2023/09/21 04:04:33;;;;;;;24.17;13.17;;;;;;;-141.97;68.89;47569.06;5000862;28;20183;-81
2023/09/21 04:06:58;;;;;;;25.70;13.07;;;;;;;-141.97;68.85;47480.63;4993902;28;20198;-80
2023/09/21 04:09:24;;;;;;;26.50;13.23;;;;;;;-141.97;68.74;47567.13;4994239;28;20888;-80
2023/09/21 04:11:49;;;;;;;22.73;13.00;;;;;;;-141.97;68.21;47453.72;5008880;28;20234;-81
2023/09/21 04:14:14;;;;;;;28.07;12.77;;;;;;;-141.97;67.33;47486.41;4993775;28;20183;-80
2023/09/21 04:16:40;;;;;;;24.97;12.57;;;;;;;-141.97;67.31;47530.59;4996327;28;20267;-80
2023/09/21 04:19:10;;;;;;;26.33;13.93;;;;;;;-141.97;67.08;47540.22;4998083;28;20567;-81
2023/09/21 04:21:38;;;;;;;30.20;13.87;;;;;;;-141.97;67.41;47519.06;4994044;28;20214;-81
2023/09/21 04:24:05;;;;;;;26.67;13.93;;;;;;;-141.97;67.36;47432.59;4993949;28;20322;-81
2023/09/21 04:26:31;;;;;;;30.37;14.83;;;;;;;-141.97;67.20;47467.19;5000185;28;20297;-82
2023/09/21 04:28:56;;;;;;;29.27;14.23;;;;;;;-141.97;67.27;47559.44;5009772;28;20194;-82
2023/09/21 04:31:22;;;;;;;28.93;14.23;;;;;;;-141.97;66.77;47549.84;4994168;28;20670;-81
2023/09/21 04:33:48;;;;;;;35.53;14.13;;;;;;;-141.97;66.08;47553.69;4993678;28;20183;-80
2023/09/21 04:36:14;;;;;;;37.27;13.93;;;;;;;-141.97;66.04;47570.97;4992288;28;20167;-81
2023/09/21 04:38:39;;;;;;;29.07;13.67;;;;;;;-141.97;66.10;47549.84;4993733;28;20218;-81
2023/09/21 04:41:05;;;;;;;24.67;13.50;;;;;;;-141.97;65.79;47538.28;4992212;28;20168;-82
2023/09/21 04:43:32;;;;;;;26.60;14.27;;;;;;;-141.97;65.39;47740.13;4992849;28;20203;-83
2023/09/21 04:45:59;;;;;;;25.30;13.60;;;;;;;-141.97;65.20;47588.28;5025596;28;20199;-83
2023/09/21 04:48:25;;;;;;;29.43;12.83;;;;;;;-141.97;64.53;47540.22;4992234;28;20589;-80
2023/09/21 04:50:50;;;;;;;29.50;13.53;;;;;;;-141.97;64.29;47499.84;4992542;28;20186;-82
2023/09/21 04:53:16;;;;;;;35.63;14.10;;;;;;;-141.97;64.41;47611.34;4993628;28;20232;-82
2023/09/21 04:55:42;;;;;;;29.30;13.67;;;;;;;-141.97;63.54;47551.75;4983912;28;20223;-83
2023/09/21 04:58:07;;;;;;;32.10;13.63;;;;;;;-141.97;63.50;47472.94;5008844;28;20180;-81
2023/09/21 05:00:33;;;;;;;35.27;13.80;;;;;;;-141.97;63.61;47484.47;5010341;28;20170;-82
2023/09/21 05:02:59;;;;;;;34.47;13.10;;;;;;;-141.97;62.80;47678.63;5013706;28;20169;-81
2023/09/21 05:05:26;;;;;;;34.17;13.87;;;;;;;-141.97;62.45;47634.41;4996655;28;20218;-81
2023/09/21 05:07:52;;;;;;;35.83;13.67;;;;;;;-141.97;62.32;47326.88;4994951;28;20187;-85
2023/09/21 05:10:18;;;;;;;36.60;14.50;;;;;;;-141.97;62.18;47384.53;4993326;28;20179;-83
2023/09/21 05:12:43;;;;;;;29.70;13.37;;;;;;;-141.97;62.02;47444.13;4994443;28;20723;-82
2023/09/21 05:15:11;;;;;;;34.60;13.23;;;;;;;-141.97;62.93;47446.03;4992920;28;20168;-82
2023/09/21 05:17:36;;;;;;;31.23;12.60;;;;;;;-141.97;63.01;47538.28;4992818;28;20168;-83
2023/09/21 05:20:05;;;;;;;29.53;12.53;;;;;;;-141.97;63.16;47584.44;5025367;28;20253;-82
2023/09/21 05:22:30;;;;;;;31.27;13.17;;;;;;;-141.97;63.36;47459.50;4993653;28;20187;-83
2023/09/21 05:24:56;;;;;;;26.60;12.40;;;;;;;-141.97;63.52;47661.31;4993329;28;20203;-82
2023/09/21 05:27:21;;;;;;;32.40;12.27;;;;;;;-141.97;63.25;47353.78;4994007;28;20200;-83
2023/09/21 05:29:47;;;;;;;27.73;11.93;;;;;;;-141.97;62.97;47532.53;4994007;28;20239;-82
2023/09/21 05:32:13;;;;;;;30.57;13.13;;;;;;;-141.97;62.77;47620.94;4993240;28;20209;-84
2023/09/21 05:34:39;;;;;;;32.03;13.87;;;;;;;-141.97;63.42;47319.19;4992812;28;20361;-82
2023/09/21 05:37:04;;;;;;;33.17;13.17;;;;;;;-141.97;63.16;47403.75;4992884;28;20564;-82
2023/09/21 05:39:30;;;;;;;40.27;15.43;;;;;;;-141.97;62.83;47565.22;5024762;28;20172;-82
2023/09/21 05:41:57;;;;;;;50.17;22.63;;;;;;;-141.97;63.05;47505.63;4992844;28;20186;-82
2023/09/21 05:44:24;;;;;;;42.67;21.23;;;;;;;-141.97;63.98;47576.75;4992492;28;20315;-82
2023/09/21 05:46:50;;;;;;;41.77;17.30;;;;;;;-141.97;64.06;47401.84;4994006;28;20187;-83
2023/09/21 05:49:22;;;;;;;34.40;13.80;;;;;;;-141.97;64.33;47396.06;4990449;28;20186;-82
2023/09/21 05:51:52;;;;;;;35.80;17.00;;;;;;;-141.97;63.88;47567.13;4990932;28;20580;-82
2023/09/21 05:54:23;;;;;;;33.13;15.00;;;;;;;-141.97;63.64;47530.59;4991362;28;20254;-82
2023/09/21 05:56:55;;;;;;;27.17;13.83;;;;;;;-141.97;63.72;47622.88;4983445;28;20361;-82
2023/09/21 05:59:23;;;;;;;32.43;15.37;;;;;;;-141.97;63.53;47524.84;4991118;28;20176;-82
2023/09/21 06:01:49;;;;;;;37.03;15.87;;;;;;;-141.97;63.59;47553.69;4996898;28;20167;-82
2023/09/21 06:04:17;;;;;;;36.60;15.20;;;;;;;-141.97;63.43;47534.44;5000462;28;20173;-83
2023/09/21 06:06:44;;;;;;;34.57;16.20;;;;;;;-141.97;63.16;47407.59;4996516;28;20210;-82
2023/09/21 06:09:12;;;;;;;32.07;14.67;;;;;;;-141.97;62.75;47580.59;5011991;28;20183;-82
2023/09/21 06:11:37;;;;;;;27.23;11.10;;;;;;;-141.97;62.39;47680.53;4993941;28;20230;-81
2023/09/21 06:14:03;;;;;;;25.03;11.47;;;;;;;-141.97;62.72;47569.06;4994906;28;20237;-81
2023/09/21 06:16:32;;;;;;;21.60;11.27;;;;;;;-141.97;62.96;47488.31;5005518;28;20187;-81
2023/09/21 06:18:58;;;;;;;21.33;10.80;;;;;;;-141.97;62.72;47549.84;5001734;28;20175;-81
2023/09/21 06:21:24;;;;;;;20.53;10.70;;;;;;;-141.97;61.85;47549.84;4993999;28;20167;-81
2023/09/21 06:23:50;;;;;;;20.97;11.07;;;;;;;-141.97;61.67;47519.06;4992936;28;20182;-85
2023/09/21 06:26:16;;;;;;;18.53;10.73;;;;;;;-141.97;61.90;47496.00;4993348;28;20287;-84
2023/09/21 06:28:47;;;;;;;18.87;10.90;;;;;;;-141.97;60.99;47549.84;4991679;28;20694;-85
2023/09/21 06:31:13;;;;;;;19.33;11.20;;;;;;;-141.97;60.73;47670.91;4993472;28;20160;-85
2023/09/21 06:33:42;;;;;;;20.87;10.93;;;;;;;-141.97;59.26;47519.06;4992587;28;20172;-85
2023/09/21 06:36:15;;;;;;;18.03;10.70;;;;;;;-141.97;58.92;47519.06;5011764;28;20245;-86
2023/09/21 06:38:43;;;;;;;18.43;10.77;;;;;;;-141.97;58.17;47642.09;5008704;28;20199;-85
2023/09/21 06:41:09;;;;;;;22.50;11.10;;;;;;;-141.97;57.77;47538.28;4987996;28;20183;-85
2023/09/21 06:43:36;;;;;;;14.83;10.30;;;;;;;-141.97;58.19;47542.16;4991725;28;20265;-84
2023/09/21 06:46:02;;;;;;;18.10;9.80;;;;;;;-141.97;57.63;47519.06;4997465;28;20170;-82
2023/09/21 06:48:27;;;;;;;17.37;9.83;;;;;;;-141.97;57.60;47303.81;5011544;28;20155;-82
2023/09/21 06:50:53;;;;;;;15.17;9.93;;;;;;;-141.97;57.22;47403.75;5008947;28;20727;-84
2023/09/21 06:53:18;;;;;;;19.53;10.63;;;;;;;-141.97;57.30;47442.19;4991831;28;20257;-84
2023/09/21 06:55:44;;;;;;;19.17;11.60;;;;;;;-141.97;57.26;47647.84;4992482;28;20191;-85
2023/09/21 06:58:09;;;;;;;16.23;10.10;;;;;;;-141.97;57.02;47534.44;4994024;28;20162;-85
2023/09/21 07:00:37;;;;;;;20.57;10.93;;;;;;;-141.97;56.38;47511.38;4995039;28;20167;-84
2023/09/21 07:03:03;;;;;;;24.60;12.67;;;;;;;-141.97;56.83;47530.59;4991610;28;20863;-85
2023/09/21 07:05:28;;;;;;;23.63;13.70;;;;;;;-141.97;56.33;47436.44;4992916;28;20239;-84
2023/09/21 07:07:54;;;;;;;18.80;11.43;;;;;;;-141.97;56.52;47453.72;4995364;28;20643;-86
2023/09/21 07:10:19;;;;;;;18.37;10.20;;;;;;;-141.97;56.32;47507.53;4994151;28;20195;-86
2023/09/21 07:12:45;;;;;;;19.00;10.10;;;;;;;-141.97;55.78;47419.13;4995335;28;20218;-86
2023/09/21 07:15:10;;;;;;;16.57;10.37;;;;;;;-141.97;55.97;47538.28;4993995;28;20673;-88
2023/09/21 07:17:36;;;;;;;16.70;10.00;;;;;;;-141.97;55.52;47494.09;4993400;28;20202;-84
2023/09/21 07:20:06;;;;;;;19.07;10.30;;;;;;;-141.97;54.97;47672.84;4994615;28;20167;-85
2023/09/21 07:22:32;;;;;;;18.00;11.17;;;;;;;-141.97;54.89;47707.44;5009256;28;20202;-85
2023/09/21 07:24:59;;;;;;;17.23;10.53;;;;;;;-141.97;55.59;47503.69;4995225;28;20163;-86
2023/09/21 07:27:24;;;;;;;17.83;9.87;;;;;;;-141.97;55.16;47480.63;4995841;28;20677;-85
2023/09/21 07:29:52;;;;;;;20.30;11.43;;;;;;;-141.97;55.44;47534.44;4996333;28;20203;-85
2023/09/21 07:32:17;;;;;;;21.57;11.77;;;;;;;-141.97;56.51;47438.34;4993996;28;20171;-86
2023/09/21 07:34:43;;;;;;;17.67;10.63;;;;;;;-141.97;56.28;47384.53;5017350;28;20182;-85
2023/09/21 07:37:12;;;;;;;16.63;10.27;;;;;;;-141.97;56.18;47444.13;5014956;28;20167;-88
2023/09/21 07:39:38;;;;;;;17.50;10.70;;;;;;;-141.97;55.22;47499.84;5048169;28;20733;-86
2023/09/21 07:42:04;;;;;;;20.67;10.30;;;;;;;-141.97;54.92;47692.06;5025042;28;20203;-87
2023/09/21 07:44:30;;;;;;;18.67;10.47;;;;;;;-141.97;55.69;47309.59;4981999;28;20293;-88
2023/09/21 07:46:57;;;;;;;20.20;10.10;;;;;;;-141.97;56.03;47365.31;5006275;28;20209;-88
2023/09/21 07:49:25;;;;;;;15.07;9.23;;;;;;;-141.97;55.61;47515.22;5027427;28;20201;-87
2023/09/21 07:51:51;;;;;;;19.00;9.40;;;;;;;-141.97;55.15;47388.38;5027178;28;20325;-88
2023/09/21 07:54:16;;;;;;;20.30;10.43;;;;;;;-141.97;54.43;47642.09;4996044;28;20587;-87
2023/09/21 07:56:42;;;;;;;18.10;11.20;;;;;;;-141.97;54.37;47307.66;5035923;28;20160;-88
2023/09/21 07:59:09;;;;;;;16.43;9.43;;;;;;;-141.97;53.65;47490.25;5011743;28;20202;-88
2023/09/21 08:01:35;;;;;;;14.80;9.63;;;;;;;-141.97;54.13;47530.59;5041132;28;20243;-86
2023/09/21 08:04:01;;;;;;;16.83;9.83;;;;;;;-141.97;53.21;47394.16;5039163;28;20226;-86
2023/09/21 08:06:28;;;;;;;16.77;10.27;;;;;;;-141.97;53.74;47299.97;5035291;28;20215;-89
2023/09/21 08:08:54;;;;;;;16.27;9.80;;;;;;;-141.97;52.52;47465.25;4999807;28;20191;-89
2023/09/21 08:11:20;;;;;;;14.17;8.70;;;;;;;-141.97;51.25;47432.59;5007254;28;20180;-89
2023/09/21 08:13:45;;;;;;;12.40;8.67;;;;;;;-141.97;51.21;47442.19;5013356;28;20202;-87
2023/09/21 08:16:11;;;;;;;13.00;7.80;;;;;;;-141.97;50.07;47255.78;5010280;28;20178;-89
2023/09/21 08:18:36;;;;;;;12.47;8.00;;;;;;;-141.97;49.63;47434.50;5009466;28;20186;-89
2023/09/21 08:21:06;;;;;;;14.30;8.70;;;;;;;-141.97;49.25;47615.19;5002099;28;20801;-88
2023/09/21 08:23:32;;;;;;;14.57;9.83;;;;;;;-141.97;49.24;47499.84;4995932;28;20170;-89
2023/09/21 08:25:58;;;;;;;14.67;8.47;;;;;;;-141.97;49.37;47380.69;4995969;28;20160;-88
2023/09/21 08:28:24;;;;;;;12.13;9.27;;;;;;;-141.97;49.87;47488.31;5009734;28;20350;-88
2023/09/21 08:30:52;;;;;;;16.07;8.77;;;;;;;-141.97;49.48;47413.38;4994642;28;20190;-87
2023/09/21 08:33:20;;;;;;;15.23;9.23;;;;;;;-141.97;49.41;47428.75;5026349;28;20183;-90
2023/09/21 08:35:45;;;;;;;16.07;9.47;;;;;;;-141.97;49.42;47357.63;5008667;28;20166;-88
2023/09/21 08:38:11;;;;;;;13.90;8.57;;;;;;;-141.97;48.57;47536.38;5014640;28;20160;-89
2023/09/21 08:40:38;;;;;;;12.57;8.70;;;;;;;-141.97;48.19;47257.69;5013732;28;20785;-88
2023/09/21 08:43:04;;;;;;;18.02;9.20;;;;;;;-141.97;47.75;47315.34;4996011;28;20691;-88
2023/09/21 08:45:33;;;;;;;12.90;8.85;;;;;;;-141.97;47.13;47242.31;4994561;28;20189;-90
2023/09/21 08:48:01;;;;;;;16.80;9.02;;;;;;;-141.97;46.48;47388.38;4994316;28;20205;-88
2023/09/21 08:50:27;;;;;;;20.50;8.95;;;;;;;-141.97;46.59;47342.25;5004302;28;20316;-88
2023/09/21 08:52:54;;;;;;;16.35;8.70;;;;;;;-141.97;46.27;47207.72;5007122;28;20217;-88
2023/09/21 08:55:25;;;;;;;16.35;9.05;;;;;;;-141.97;46.00;47453.72;4997489;28;20173;-88
2023/09/21 08:57:53;;;;;;;15.20;8.52;;;;;;;-141.97;44.85;47542.16;4976225;28;20661;-88
2023/09/21 09:00:21;;;;;;;13.73;8.38;;;;;;;-141.97;44.39;47471.03;5025661;28;20202;-88
2023/09/21 09:02:49;;;;;;;13.27;8.25;;;;;;;-141.97;45.30;47392.22;4992562;28;20193;-88
2023/09/21 09:05:15;;;;;;;18.30;9.25;;;;;;;-141.97;44.81;47253.84;4998615;28;20274;-90
2023/09/21 09:07:42;;;;;;;19.00;9.05;;;;;;;-141.97;44.65;47409.53;5026923;28;20199;-90
2023/09/21 09:10:12;;;;;;;13.52;8.60;;;;;;;-141.97;43.35;47219.25;4991123;28;20180;-88
2023/09/21 09:12:39;;;;;;;15.70;9.10;;;;;;;-141.97;43.58;47315.34;4992071;28;20226;-87
2023/09/21 09:15:06;;;;;;;13.23;8.70;;;;;;;-141.97;43.39;47419.13;5009471;28;21070;-87
2023/09/21 09:17:32;;;;;;;12.70;8.55;;;;;;;-141.97;42.84;47340.34;4993877;28;20192;-88
2023/09/21 09:20:03;;;;;;;13.13;8.30;;;;;;;-141.97;42.89;47261.53;4992283;28;20191;-90
2023/09/21 09:22:34;;;;;;;12.38;7.93;;;;;;;-141.97;42.93;47436.44;5008531;28;20696;-88
2023/09/21 09:25:09;;;;;;;11.60;7.40;;;;;;;-141.97;43.27;47586.34;4993410;28;20622;-88
2023/09/21 09:27:35;;;;;;;9.57;6.57;;;;;;;-141.97;43.35;47601.72;5008506;28;20707;-89
2023/09/21 09:30:01;;;;;;;10.02;6.60;;;;;;;-141.97;42.45;47449.88;4992790;28;20167;-86
2023/09/21 09:32:40;;;;;;;9.07;6.70;;;;;;;-141.97;41.02;47367.25;5024993;28;20682;-86
2023/09/21 09:35:11;;;;;;;11.88;6.78;;;;;;;-141.97;40.04;47365.31;5001059;28;20195;-88
2023/09/21 09:37:37;;;;;;;10.45;6.78;;;;;;;-141.97;39.86;47273.06;5012330;28;20573;-88
2023/09/21 09:40:24;;;;;;;13.00;7.70;;;;;;;-141.97;41.05;47582.50;5011660;28;20179;-89
2023/09/21 09:42:51;;;;;;;11.40;7.20;;;;;;;-141.97;40.53;47613.25;5000638;28;20280;-87
2023/09/21 09:45:18;;;;;;;10.43;7.03;;;;;;;-141.97;40.75;47386.47;4991742;28;20640;-87
2023/09/21 09:47:50;;;;;;;10.95;6.70;;;;;;;-141.97;40.45;47434.50;4992150;28;20209;-89
2023/09/21 09:50:20;;;;;;;9.57;6.90;;;;;;;-141.97;39.85;47371.09;5024266;28;20174;-87
2023/09/21 09:52:50;;;;;;;9.52;7.07;;;;;;;-141.97;39.60;47438.34;4991544;28;20654;-87
2023/09/21 09:55:22;;;;;;;13.38;7.88;;;;;;;-141.97;39.88;47323.03;4992020;28;20176;-87
2023/09/21 09:57:53;;;;;;;14.77;7.90;;;;;;;-141.97;40.83;47567.13;4982930;28;20238;-88
2023/09/21 10:00:22;;;;;;;12.57;7.80;;;;;;;-141.97;40.38;47265.38;4993995;28;20615;-88
2023/09/21 10:02:49;;;;;;;10.75;7.68;;;;;;;-141.97;40.11;47296.13;4994050;28;20179;-88
2023/09/21 10:05:19;;;;;;;13.73;8.50;;;;;;;-141.97;40.48;47367.25;4991939;28;20186;-92
2023/09/21 10:07:46;;;;;;;11.45;7.28;;;;;;;-141.97;40.55;47392.22;4993540;28;20199;-88
2023/09/21 10:10:15;;;;;;;9.82;7.28;;;;;;;-141.97;39.94;47207.72;4993125;28;20628;-89
2023/09/21 10:12:43;;;;;;;10.32;7.28;;;;;;;-141.97;40.06;47355.72;5025632;28;20332;-89
2023/09/21 10:15:13;;;;;;;11.38;7.68;;;;;;;-141.97;40.52;47584.44;4991983;28;20171;-89
2023/09/21 10:17:38;;;;;;;10.85;7.60;;;;;;;-141.97;40.64;47584.44;4991874;28;20181;-89
2023/09/21 10:20:14;;;;;;;11.23;7.85;;;;;;;-141.97;40.89;47384.53;4998054;28;20174;-87
2023/09/21 10:22:43;;;;;;;8.25;7.22;;;;;;;-141.97;39.91;47396.06;5007755;28;20171;-90
2023/09/21 10:25:10;;;;;;;16.42;8.15;;;;;;;-141.97;39.59;47259.63;5036694;28;20278;-89
2023/09/21 10:27:38;;;;;;;15.45;7.88;;;;;;;-141.97;39.92;47161.59;5013381;28;20674;-89
2023/09/21 10:30:08;;;;;;;11.02;7.97;;;;;;;-141.97;39.10;47353.78;4998050;28;20163;-89
2023/09/21 10:32:47;;;;;;;16.98;8.13;;;;;;;-141.97;39.27;47351.88;4991825;28;20568;-86
2023/09/21 10:35:18;;;;;;;13.48;8.23;;;;;;;-141.97;38.63;47299.97;4991907;28;20549;-85
2023/09/21 10:37:44;;;;;;;11.70;8.30;;;;;;;-141.97;39.33;47130.84;4992911;28;20167;-85
2023/09/21 10:40:20;;;;;;;13.40;8.55;;;;;;;-141.97;38.78;47159.69;4997946;28;20693;-87
2023/09/21 10:42:48;;;;;;;14.00;8.25;;;;;;;-141.97;38.20;47607.50;4994150;28;20158;-85
2023/09/21 10:45:13;;;;;;;14.50;8.82;;;;;;;-141.97;37.95;47553.69;4991896;28;20174;-85
2023/09/21 10:47:44;;;;;;;15.50;8.27;;;;;;;-141.97;37.72;47597.88;4991153;28;20205;-85
2023/09/21 10:50:19;;;;;;;14.63;8.75;;;;;;;-141.97;37.28;47371.09;4993369;28;20169;-86
2023/09/21 10:52:55;;;;;;;14.05;8.00;;;;;;;-141.97;37.19;47346.09;4991336;28;20681;-85
2023/09/21 10:55:21;;;;;;;13.48;7.60;;;;;;;-141.97;37.08;47592.13;4991073;28;20178;-87
2023/09/21 10:57:48;;;;;;;12.10;7.47;;;;;;;-141.97;37.99;47578.66;4973556;28;20243;-87
2023/09/21 11:03:20;;;;;;;14.45;8.32;;;;;;;-141.97;37.57;47365.31;5008467;28;20785;-91
2023/09/21 11:06:30;;;;;;;8.93;7.57;;;;;;;-141.97;37.25;47369.16;5009864;28;20640;-90
2023/09/21 11:08:56;;;;;;;9.77;8.27;;;;;;;-141.97;37.34;47373.00;4991472;28;20661;-87
2023/09/21 11:11:25;;;;;;;13.95;7.95;;;;;;;-141.97;37.02;47157.75;4991597;28;20181;-91